Search for airport 
image banner adimage banner adimage banner ad
image banner ad

36CA - Stone Land Co

Located in Stratford, United States

ICAO - 36CA, IATA -

Data provided by Airmate  

General information

Coordinates: N36°7'55" W119°59'8"
Elevation is 265 feet MSL.
Magnetic variation is 15° East
View others Airports in California

Operational data

Special qualification required
Current time UTC:
Current local time:
Weather at : KNLC - Lemoore Nas (Reeves Fld) ( 23 km )
METAR: KNLC 150756Z AUTO 33018G24KT 10SM CLR 22/08 A2998 RMK AO2 SLP152 T02170083 403390172
TAF: TAF KNLC 1507/1607 31015G24KT 9999 SKC QNH2991INS FM151400 31013KT 9999 FEW050 QNH2985INS FM160300 30006KT 9999 SCT200 QNH2986INS AUTOMATED SENSOR METWATCH 1507 TIL 1514 T16/1514Z T33/1523Z FS30173
View NOTAMs / SUP AIP / TFR affecting this airport [VIEW]
Communications frequencies: [VIEW]

Runways:

RWY identifierQFULength (ft)Width (ft)SurfaceLDA (ft)
16330030ASPH
34330030ASPH

Airport contact information

Address: Stratford United States

Satellite view of 36CA